This is the latest recevied weather packets stored in our database for station/object OE3MHU-12. If no packets are shown the sender has not sent any weather packets the latest 10 day(s).
| Time | Temp. | Humidity | Pressure | Rain* | Wind** | Luminosity | Snow |
|---|---|---|---|---|---|---|---|
| 1788153189 | 62° F | 88% | 760.1 mmHg | 0.03 in | - | - | - |
| 1788149589 | 61° F | 87% | 760 mmHg | 0.01 in | - | - | - |
| 1788147789 | 61° F | 86% | 760 mmHg | 0 in | - | - | - |
| 1788145989 | 61° F | 86% | 759.7 mmHg | 0 in | - | - | - |
| 1788144189 | 60° F | 85% | 760.1 mmHg | 0 in | - | - | - |
| 1788142389 | 59° F | 85% | 760.6 mmHg | 0 in | - | - | - |
| 1788140589 | 59° F | 85% | 760.6 mmHg | 0 in | - | - | - |
| 1788138790 | 58° F | 85% | 760.5 mmHg | 0 in | - | - | - |
| 1788136989 | 59° F | 83% | 760.4 mmHg | 0 in | - | - | - |
| 1788135189 | 59° F | 82% | 760.4 mmHg | 0 in | - | - | - |
| 1788133389 | 60° F | 82% | 760.6 mmHg | 0 in | - | - | - |
| 1788131590 | 61° F | 81% | 760.8 mmHg | 0 in | - | - | - |
| 1788129790 | 62° F | 80% | 760.8 mmHg | 0 in | - | - | - |
| 1788126190 | 63° F | 78% | 760.9 mmHg | 0 in | - | - | - |
| 1788122590 | 64° F | 75% | 760.9 mmHg | 0 in | - | - | - |
| 1788120790 | 66° F | 73% | 760.6 mmHg | 0 in | - | - | - |
| 1788119268 | 67° F | 71% | 760.7 mmHg | 0 in | - | - | - |
| 1788118990 | 67° F | 71% | 760.7 mmHg | 0 in | - | - | - |
| 1788117190 | 69° F | 69% | 760.6 mmHg | 0 in | - | - | - |
| 1788115390 | 71° F | 66% | 760.6 mmHg | 0 in | - | - | - |
| 1788113590 | 74° F | 61% | 760.5 mmHg | 0 in | - | - | - |
| 1788111791 | 78° F | 53% | 760.3 mmHg | 0 in | - | - | - |
| 1788108191 | 82° F | 46% | 760.2 mmHg | 0 in | - | - | - |
| 1788106392 | 83° F | 44% | 760.2 mmHg | 0 in | - | - | - |
| 1788104591 | 83° F | 44% | 760.3 mmHg | 0 in | - | - | - |
* Rain latest hour (hover to see other rain measurements)
** Current wind speed in m/s (hover to see current wind gust speed)